Time;durP1;ratioP1;P1;durP2;ratioP2;P2;SDS_P1;SDS_P2;PMS_P1;PMS_P2;Temp;Humidity;BMP_temperature;BMP_pressure;BME280_temperature;BME280_humidity;BME280_pressure;Samples;Min_cycle;Max_cycle;Signal;HPM_P1;HPM_P2
2022/07/14 00:01:19;;;;;;;12.00;3.07;;;14.10;99.90;;;;;;5084918;28;20063;-76
2022/07/14 00:03:46;;;;;;;12.53;2.50;;;14.10;99.90;;;;;;5079760;28;20033;-76
2022/07/14 00:06:13;;;;;;;13.57;2.83;;;14.00;99.90;;;;;;5072140;28;20044;-76
2022/07/14 00:08:39;;;;;;;9.50;1.90;;;14.00;99.90;;;;;;5069761;28;20040;-76
2022/07/14 00:11:05;;;;;;;13.03;2.40;;;14.00;99.90;;;;;;5067637;28;20106;-76
2022/07/14 00:13:31;;;;;;;8.30;2.40;;;14.00;99.90;;;;;;5084700;28;20102;-76
2022/07/14 00:15:57;;;;;;;11.90;2.50;;;14.00;99.90;;;;;;5084810;28;20392;-76
2022/07/14 00:18:23;;;;;;;10.63;2.80;;;14.00;99.90;;;;;;5079344;28;20089;-76
2022/07/14 00:20:49;;;;;;;9.13;1.90;;;13.90;99.90;;;;;;5067903;28;20040;-76
2022/07/14 00:23:16;;;;;;;6.47;2.23;;;13.90;99.90;;;;;;5081470;28;20109;-76
2022/07/14 00:25:42;;;;;;;11.60;2.30;;;13.90;99.90;;;;;;5064157;28;20130;-76
2022/07/14 00:28:08;;;;;;;10.83;2.57;;;13.90;99.90;;;;;;5067195;28;20119;-77
2022/07/14 00:30:34;;;;;;;12.80;2.10;;;13.80;99.90;;;;;;5058696;28;20139;-76
2022/07/14 00:32:59;;;;;;;13.47;2.00;;;13.80;99.90;;;;;;5088155;28;20042;-76
2022/07/14 00:35:25;;;;;;;11.07;2.00;;;13.80;99.90;;;;;;5071424;28;20048;-77
2022/07/14 00:37:51;;;;;;;9.97;2.00;;;13.80;99.90;;;;;;5072502;28;20047;-76
2022/07/14 00:40:18;;;;;;;9.70;2.90;;;13.70;99.90;;;;;;5047529;28;20044;-76
2022/07/14 00:42:47;;;;;;;15.37;2.67;;;13.70;99.90;;;;;;5048594;28;20491;-76
2022/07/14 00:45:16;;;;;;;11.17;2.70;;;13.60;99.90;;;;;;5085754;28;20051;-76
2022/07/14 00:47:43;;;;;;;14.60;2.23;;;13.60;99.90;;;;;;5067613;28;20522;-76
2022/07/14 00:50:11;;;;;;;13.50;2.60;;;13.60;99.90;;;;;;5071017;28;20043;-76
2022/07/14 00:52:37;;;;;;;14.23;2.60;;;13.50;99.90;;;;;;5070697;28;20376;-76
2022/07/14 00:55:03;;;;;;;10.53;2.37;;;13.50;99.90;;;;;;5074109;28;20082;-76
2022/07/14 00:57:30;;;;;;;9.43;2.03;;;13.50;99.90;;;;;;5082743;28;20050;-76
2022/07/14 00:59:56;;;;;;;16.30;3.17;;;13.40;99.90;;;;;;5089140;28;20080;-76
2022/07/14 01:02:22;;;;;;;10.47;2.30;;;13.40;99.90;;;;;;5070997;28;20094;-76
2022/07/14 01:04:49;;;;;;;11.60;2.30;;;13.30;99.90;;;;;;5052569;28;20047;-76
2022/07/14 01:07:16;;;;;;;10.30;2.50;;;13.30;99.90;;;;;;5068075;28;20036;-76
2022/07/14 01:09:43;;;;;;;13.60;2.73;;;13.30;99.90;;;;;;5071472;28;20073;-76
2022/07/14 01:12:10;;;;;;;12.47;2.87;;;13.20;99.90;;;;;;5088653;28;20062;-76
2022/07/14 01:14:38;;;;;;;9.17;2.23;;;13.20;99.90;;;;;;5089451;28;20036;-76
2022/07/14 01:17:04;;;;;;;8.87;2.63;;;13.20;99.90;;;;;;5065113;28;21915;-76
2022/07/14 01:19:30;;;;;;;10.83;2.23;;;13.10;99.90;;;;;;5072790;28;20473;-76
2022/07/14 01:21:58;;;;;;;12.10;2.80;;;13.10;99.90;;;;;;5069712;28;20111;-76
2022/07/14 01:24:24;;;;;;;10.70;2.20;;;13.00;99.90;;;;;;5063783;28;20052;-76
2022/07/14 01:26:51;;;;;;;8.60;2.33;;;13.00;99.90;;;;;;5072120;28;20028;-76
2022/07/14 01:29:17;;;;;;;7.87;2.27;;;13.00;99.90;;;;;;5065107;28;20052;-76
2022/07/14 01:31:44;;;;;;;4.00;1.53;;;13.00;99.90;;;;;;5071073;28;20028;-76
2022/07/14 01:34:12;;;;;;;9.83;2.20;;;12.90;99.90;;;;;;5068750;28;20504;-77
2022/07/14 01:36:38;;;;;;;11.33;2.73;;;12.90;99.90;;;;;;5086725;28;20115;-76
2022/07/14 01:39:06;;;;;;;9.60;2.17;;;12.80;99.90;;;;;;5055195;28;20040;-76
2022/07/14 01:41:33;;;;;;;8.67;2.50;;;12.80;99.90;;;;;;5061737;28;20142;-77
2022/07/14 01:43:59;;;;;;;8.97;2.20;;;12.80;99.90;;;;;;5058345;28;20509;-76
2022/07/14 01:46:25;;;;;;;14.70;2.90;;;12.70;99.90;;;;;;5059555;28;20097;-77
2022/07/14 01:48:52;;;;;;;10.67;2.30;;;12.70;99.90;;;;;;5084821;28;20090;-76
2022/07/14 01:51:18;;;;;;;10.30;2.90;;;12.60;99.90;;;;;;5069837;28;20039;-76
2022/07/14 01:53:44;;;;;;;12.30;3.10;;;12.60;99.90;;;;;;5053704;28;20062;-76
2022/07/14 01:56:12;;;;;;;14.43;2.80;;;12.50;99.90;;;;;;5054486;28;20070;-76
2022/07/14 01:58:39;;;;;;;12.20;2.90;;;12.50;99.90;;;;;;5066259;28;20045;-76
2022/07/14 02:03:55;;;;;;;7.97;2.33;;;12.50;99.90;;;;;;5072604;28;20059;-76
2022/07/14 02:06:21;;;;;;;17.77;2.23;;;12.50;99.90;;;;;;5068563;28;20052;-76
2022/07/14 02:08:48;;;;;;;6.27;2.10;;;12.50;99.90;;;;;;5051822;28;20509;-76
2022/07/14 02:14:00;;;;;;;10.23;3.13;;;12.40;99.90;;;;;;5071625;28;20089;-76
2022/07/14 02:16:26;;;;;;;10.67;3.30;;;12.40;99.90;;;;;;5066299;28;20059;-76
2022/07/14 02:18:52;;;;;;;8.13;3.17;;;12.40;99.90;;;;;;5069170;28;20543;-76
2022/07/14 02:21:18;;;;;;;12.50;2.47;;;12.40;99.90;;;;;;5090124;28;20127;-76
2022/07/14 02:23:44;;;;;;;6.43;2.40;;;12.40;99.90;;;;;;5070162;28;20088;-76
2022/07/14 02:26:10;;;;;;;11.83;3.33;;;12.40;99.90;;;;;;5053492;28;20182;-77
2022/07/14 02:28:37;;;;;;;8.90;3.50;;;12.40;99.90;;;;;;5081201;28;20051;-77
2022/07/14 02:31:03;;;;;;;4.50;1.80;;;12.40;99.90;;;;;;5072342;28;20044;-78
2022/07/14 02:33:29;;;;;;;9.40;2.40;;;12.30;99.90;;;;;;5063164;28;20406;-77
2022/07/14 02:35:55;;;;;;;6.13;2.10;;;12.30;99.90;;;;;;5073224;28;20032;-77
2022/07/14 02:38:21;;;;;;;6.57;2.57;;;12.30;99.90;;;;;;5071049;28;20040;-77
2022/07/14 02:40:47;;;;;;;9.87;3.00;;;12.20;99.90;;;;;;5082063;28;20043;-78
2022/07/14 02:43:13;;;;;;;10.70;2.60;;;12.20;99.90;;;;;;5081259;28;20044;-76
2022/07/14 02:45:40;;;;;;;5.50;1.90;;;12.20;99.90;;;;;;5048780;28;20530;-77
2022/07/14 02:48:06;;;;;;;8.77;2.63;;;12.20;99.90;;;;;;5056297;28;20051;-76
2022/07/14 02:50:32;;;;;;;4.53;2.17;;;12.10;99.90;;;;;;5070112;28;20442;-77
2022/07/14 02:52:58;;;;;;;8.63;2.00;;;12.10;99.90;;;;;;5071940;28;20124;-76
2022/07/14 02:55:25;;;;;;;7.93;2.73;;;12.10;99.90;;;;;;5073514;28;20403;-77
2022/07/14 02:57:52;;;;;;;7.03;3.17;;;12.00;99.90;;;;;;5083993;28;20044;-76
2022/07/14 03:00:18;;;;;;;10.43;3.37;;;12.00;99.90;;;;;;5072616;28;20086;-76
2022/07/14 03:02:47;;;;;;;6.13;3.07;;;12.00;99.90;;;;;;5051777;28;20076;-74
2022/07/14 03:05:14;;;;;;;11.10;3.30;;;11.90;99.90;;;;;;5071672;28;20059;-73
2022/07/14 03:07:41;;;;;;;8.17;3.13;;;11.90;99.90;;;;;;5070772;28;20044;-74
2022/07/14 03:10:08;;;;;;;3.40;2.00;;;11.90;99.90;;;;;;5069219;28;20039;-74
2022/07/14 03:12:34;;;;;;;7.23;2.30;;;11.90;99.90;;;;;;5048697;28;20059;-74
2022/07/14 03:15:00;;;;;;;6.00;2.60;;;11.90;99.90;;;;;;5070245;28;20498;-74
2022/07/14 03:17:26;;;;;;;7.40;2.20;;;11.80;99.90;;;;;;5056548;28;20048;-74
2022/07/14 03:19:54;;;;;;;3.13;1.80;;;11.80;99.90;;;;;;5070962;28;20032;-74
2022/07/14 03:22:19;;;;;;;3.17;1.63;;;11.70;99.90;;;;;;5084959;28;20457;-74
2022/07/14 03:24:46;;;;;;;5.23;2.13;;;11.70;99.90;;;;;;5072325;28;20039;-74
2022/07/14 03:27:12;;;;;;;6.73;2.63;;;11.70;99.90;;;;;;5058270;28;20094;-73
2022/07/14 03:29:39;;;;;;;6.87;3.13;;;11.60;99.90;;;;;;5061747;28;20503;-74
2022/07/14 03:32:06;;;;;;;6.03;2.60;;;11.60;99.90;;;;;;5060181;28;20128;-73
2022/07/14 03:34:31;;;;;;;5.70;2.10;;;11.60;99.90;;;;;;5061344;28;20050;-74
2022/07/14 03:36:59;;;;;;;6.93;2.10;;;11.60;99.90;;;;;;5088277;28;20040;-74
2022/07/14 03:39:31;;;;;;;;;;;11.60;99.90;;;;;;5071700;28;20040;-73
2022/07/14 03:41:57;;;;;;;6.77;2.80;;;11.60;99.90;;;;;;5065834;28;19965;-74
2022/07/14 03:44:22;;;;;;;8.83;3.37;;;11.50;99.90;;;;;;5066262;28;20048;-73
2022/07/14 03:46:48;;;;;;;9.10;3.77;;;11.50;99.90;;;;;;5063520;28;20044;-73
2022/07/14 03:49:17;;;;;;;9.43;3.03;;;11.60;99.90;;;;;;5053133;28;20113;-74
2022/07/14 03:51:44;;;;;;;7.33;3.37;;;11.50;99.90;;;;;;5069841;28;20598;-74
2022/07/14 03:54:14;;;;;;;5.70;2.93;;;11.50;99.90;;;;;;5055870;28;20059;-73
2022/07/14 03:56:40;;;;;;;7.23;2.90;;;11.50;99.90;;;;;;5049508;28;20044;-74
2022/07/14 03:59:06;;;;;;;6.03;1.67;;;11.50;99.90;;;;;;5057045;28;20045;-74
2022/07/14 04:01:32;;;;;;;3.00;1.27;;;11.50;99.90;;;;;;5070669;28;20036;-74
2022/07/14 04:04:00;;;;;;;5.60;1.87;;;11.50;99.90;;;;;;5073341;28;20146;-73
2022/07/14 04:06:27;;;;;;;3.17;1.80;;;11.50;99.90;;;;;;5073598;28;20032;-74
2022/07/14 04:08:54;;;;;;;5.07;2.03;;;11.40;99.90;;;;;;5074730;28;20036;-74
2022/07/14 04:11:21;;;;;;;7.00;2.80;;;11.40;99.90;;;;;;5075666;28;20491;-73
2022/07/14 04:13:48;;;;;;;4.60;2.50;;;11.40;99.90;;;;;;5069713;28;20293;-73
2022/07/14 04:16:14;;;;;;;5.37;2.33;;;11.40;99.90;;;;;;5091416;28;20044;-74
2022/07/14 04:18:43;;;;;;;3.27;1.60;;;11.50;99.90;;;;;;5073651;28;20040;-73
2022/07/14 04:21:11;;;;;;;2.60;1.70;;;11.50;99.90;;;;;;5071860;28;20039;-74
2022/07/14 04:23:37;;;;;;;3.83;1.80;;;11.50;99.90;;;;;;5055100;28;20037;-74
2022/07/14 04:26:03;;;;;;;7.73;2.23;;;11.50;99.90;;;;;;5074083;28;20115;-72
2022/07/14 04:28:30;;;;;;;7.67;2.50;;;11.50;99.90;;;;;;5073199;28;20032;-74
2022/07/14 04:30:57;;;;;;;6.73;2.60;;;11.50;99.90;;;;;;5067585;28;20036;-74
2022/07/14 04:33:24;;;;;;;9.10;3.07;;;11.60;99.90;;;;;;5073535;28;20048;-74
2022/07/14 04:35:52;;;;;;;10.23;3.33;;;11.60;99.90;;;;;;5074405;28;20132;-73
2022/07/14 04:38:18;;;;;;;12.90;4.50;;;11.60;99.90;;;;;;5073600;28;20055;-74
2022/07/14 04:40:49;;;;;;;7.83;3.03;;;11.60;99.90;;;;;;5074779;28;20443;-73
2022/07/14 04:43:16;;;;;;;6.70;2.63;;;11.60;99.90;;;;;;5067705;28;20047;-73
2022/07/14 04:45:45;;;;;;;8.33;2.80;;;11.70;99.90;;;;;;5074059;28;20040;-74
2022/07/14 04:48:12;;;;;;;7.43;2.50;;;11.70;99.90;;;;;;5068114;28;20059;-73
2022/07/14 04:53:23;;;;;;;10.47;3.63;;;11.80;99.90;;;;;;5073422;28;20090;-74
2022/07/14 04:56:19;;;;;;;8.67;3.70;;;11.90;99.90;;;;;;5070298;28;20089;-73
2022/07/14 04:58:50;;;;;;;8.80;4.67;;;12.00;99.90;;;;;;5071603;28;20054;-73
2022/07/14 05:01:18;;;;;;;11.73;5.20;;;12.00;99.90;;;;;;5073273;28;20050;-74
2022/07/14 05:03:44;;;;;;;13.23;4.80;;;12.10;99.90;;;;;;5073582;28;20044;-73
2022/07/14 05:06:11;;;;;;;9.07;5.20;;;12.10;99.90;;;;;;5069888;28;20056;-73
2022/07/14 05:08:37;;;;;;;15.47;6.33;;;12.20;99.90;;;;;;5054257;28;20093;-73
2022/07/14 05:11:04;;;;;;;13.23;4.77;;;12.30;99.90;;;;;;5054623;28;20036;-74
2022/07/14 05:13:30;;;;;;;10.97;4.87;;;12.40;99.90;;;;;;5057326;28;20074;-74
2022/07/14 05:15:56;;;;;;;14.77;5.97;;;12.50;99.90;;;;;;5071478;28;20032;-74
2022/07/14 05:18:24;;;;;;;9.53;5.30;;;12.60;99.90;;;;;;5073057;28;20130;-73
2022/07/14 05:20:50;;;;;;;10.60;4.73;;;12.70;99.90;;;;;;5074557;28;20487;-74
2022/07/14 05:23:15;;;;;;;11.63;4.20;;;12.90;99.90;;;;;;5072138;28;20050;-74
2022/07/14 05:25:41;;;;;;;13.77;5.10;;;13.00;99.90;;;;;;5068921;28;20056;-73
2022/07/14 05:28:08;;;;;;;13.73;5.27;;;13.10;99.90;;;;;;5068143;28;20125;-74
2022/07/14 05:30:41;;;;;;;11.60;4.50;;;13.20;99.90;;;;;;5053762;28;20094;-73
2022/07/14 05:33:08;;;;;;;10.83;4.17;;;13.40;99.90;;;;;;5072884;28;20044;-74
2022/07/14 05:35:39;;;;;;;12.47;4.30;;;13.50;99.90;;;;;;5064984;28;20044;-74
2022/07/14 05:38:06;;;;;;;12.37;5.33;;;13.60;99.90;;;;;;5072728;28;20040;-74
2022/07/14 05:40:32;;;;;;;12.17;4.30;;;13.70;99.90;;;;;;5072476;28;20052;-74
2022/07/14 05:43:01;;;;;;;15.60;4.60;;;13.80;99.90;;;;;;5071039;28;20447;-73
2022/07/14 05:45:28;;;;;;;12.83;4.37;;;13.80;99.90;;;;;;5068783;28;20043;-73
2022/07/14 05:47:53;;;;;;;12.53;4.47;;;13.80;99.90;;;;;;5043605;28;20047;-74
2022/07/14 05:50:21;;;;;;;13.03;4.17;;;13.90;99.90;;;;;;5070309;28;20047;-74
2022/07/14 05:52:49;;;;;;;13.33;4.50;;;13.90;99.90;;;;;;5072397;28;20040;-74
2022/07/14 05:55:14;;;;;;;13.47;3.77;;;14.00;99.90;;;;;;5073259;28;20101;-74
2022/07/14 05:57:42;;;;;;;11.73;4.37;;;14.20;99.90;;;;;;5054047;28;20054;-74
2022/07/14 06:00:10;;;;;;;13.27;3.70;;;14.20;99.90;;;;;;5060792;28;20040;-74
2022/07/14 06:02:43;;;;;;;11.40;3.55;;;14.30;99.90;;;;;;5071766;28;20380;-74
2022/07/14 06:05:14;;;;;;;11.63;2.93;;;14.40;99.90;;;;;;5073526;28;20131;-74
2022/07/14 06:07:39;;;;;;;12.90;3.00;;;14.50;99.90;;;;;;5071843;28;20115;-74
2022/07/14 06:10:10;;;;;;;14.60;3.20;;;14.50;99.90;;;;;;5069841;28;20410;-74
2022/07/14 06:12:37;;;;;;;8.43;2.80;;;14.80;99.90;;;;;;5072252;28;20442;-74
2022/07/14 06:15:07;;;;;;;7.17;2.27;;;15.20;99.90;;;;;;5070489;28;20062;-74
2022/07/14 06:17:34;;;;;;;10.17;2.20;;;15.30;99.90;;;;;;5070736;28;20051;-74
2022/07/14 06:20:06;;;;;;;9.20;2.43;;;15.40;99.90;;;;;;5088795;28;20044;-74
2022/07/14 06:22:32;;;;;;;7.30;2.23;;;15.50;99.90;;;;;;5070004;28;20047;-75
2022/07/14 06:24:58;;;;;;;14.40;2.60;;;15.50;99.90;;;;;;5071903;28;20032;-74
2022/07/14 06:27:27;;;;;;;10.43;2.40;;;15.60;99.90;;;;;;5071522;28;20043;-74
2022/07/14 06:29:54;;;;;;;12.63;2.17;;;15.60;99.90;;;;;;5056097;28;20048;-74
2022/07/14 06:32:20;;;;;;;9.97;2.00;;;15.60;99.90;;;;;;5071072;28;20040;-75
2022/07/14 06:34:47;;;;;;;10.13;1.83;;;15.60;99.90;;;;;;5072369;28;20075;-74
2022/07/14 06:37:16;;;;;;;9.60;2.10;;;15.60;99.90;;;;;;5062651;28;20044;-74
2022/07/14 06:39:43;;;;;;;11.83;2.10;;;15.80;99.90;;;;;;5071647;28;20505;-74
2022/07/14 06:42:09;;;;;;;4.97;1.87;;;15.80;99.90;;;;;;5062396;28;20127;-74
2022/07/14 06:44:42;;;;;;;6.00;1.50;;;15.80;99.90;;;;;;5071261;28;20050;-75
2022/07/14 06:47:08;;;;;;;11.10;1.93;;;15.90;99.90;;;;;;5054848;28;20074;-76
2022/07/14 06:49:35;;;;;;;7.43;1.27;;;16.00;99.90;;;;;;5046839;28;20039;-74
2022/07/14 06:52:00;;;;;;;8.93;1.43;;;16.00;99.90;;;;;;5068120;28;20110;-74
2022/07/14 06:54:26;;;;;;;7.40;1.57;;;16.10;99.90;;;;;;5065661;28;20131;-74
2022/07/14 06:56:52;;;;;;;6.83;1.40;;;16.10;99.90;;;;;;5062070;28;20047;-75
2022/07/14 06:59:18;;;;;;;9.53;1.53;;;16.30;99.90;;;;;;5081642;28;20248;-75
2022/07/14 07:01:45;;;;;;;9.47;1.60;;;16.30;99.90;;;;;;5085808;28;20701;-74
2022/07/14 07:04:10;;;;;;;8.97;1.40;;;16.40;99.90;;;;;;5086480;28;20499;-75
2022/07/14 07:06:44;;;;;;;7.97;1.70;;;16.50;99.90;;;;;;5087456;28;20040;-74
2022/07/14 07:09:10;;;;;;;;;;;16.50;99.90;;;;;;5066574;28;20055;-74
2022/07/14 07:11:36;;;;;;;6.70;1.50;;;16.50;99.90;;;;;;5084342;28;19922;-74
2022/07/14 07:14:02;;;;;;;7.77;1.40;;;16.50;99.90;;;;;;5079491;28;20097;-74
2022/07/14 07:16:28;;;;;;;8.37;1.83;;;16.70;99.90;;;;;;5066821;28;20091;-74
2022/07/14 07:18:55;;;;;;;8.60;1.53;;;16.70;99.90;;;;;;5070933;28;20064;-74
2022/07/14 07:21:21;;;;;;;7.97;1.23;;;16.70;99.90;;;;;;5051841;28;20044;-74
2022/07/14 07:23:48;;;;;;;7.30;1.53;;;16.80;99.90;;;;;;5076714;28;20036;-75
2022/07/14 07:26:13;;;;;;;9.27;1.43;;;16.90;99.90;;;;;;5061330;28;20048;-72
2022/07/14 07:28:39;;;;;;;9.00;1.40;;;17.00;99.90;;;;;;5079727;28;20101;-74
2022/07/14 07:31:06;;;;;;;8.97;1.57;;;17.20;99.90;;;;;;5043853;28;20472;-74
2022/07/14 07:33:32;;;;;;;4.83;1.30;;;17.30;99.90;;;;;;5052956;28;20070;-74
2022/07/14 07:36:00;;;;;;;6.43;1.43;;;17.40;99.90;;;;;;5063625;28;20429;-75
2022/07/14 07:38:26;;;;;;;7.83;1.40;;;17.50;99.90;;;;;;5050556;28;20089;-74
2022/07/14 07:40:53;;;;;;;5.73;0.90;;;17.60;99.90;;;;;;5062044;28;20491;-74
2022/07/14 07:43:20;;;;;;;6.53;1.20;;;17.70;99.90;;;;;;5065291;28;20044;-74
2022/07/14 07:45:46;;;;;;;8.93;1.37;;;17.80;99.90;;;;;;5067983;28;20032;-75
2022/07/14 07:48:12;;;;;;;6.07;1.27;;;17.90;99.90;;;;;;5084357;28;20109;-76
2022/07/14 07:50:40;;;;;;;7.70;1.60;;;18.00;99.90;;;;;;5060690;28;20562;-74
2022/07/14 07:53:08;;;;;;;4.70;1.17;;;17.90;99.90;;;;;;5081780;28;20471;-76
2022/07/14 07:55:33;;;;;;;8.83;1.43;;;17.80;99.90;;;;;;5056848;28;20051;-74
2022/07/14 07:57:59;;;;;;;4.57;1.00;;;17.80;99.90;;;;;;5080513;28;20042;-73
2022/07/14 08:00:25;;;;;;;7.03;1.13;;;17.90;99.90;;;;;;5063032;28;20072;-74
2022/07/14 08:02:53;;;;;;;6.87;1.30;;;18.20;99.90;;;;;;5060631;28;22066;-74
2022/07/14 08:05:21;;;;;;;7.37;1.03;;;18.30;99.90;;;;;;5069134;28;20036;-75
2022/07/14 08:07:47;;;;;;;5.87;1.13;;;18.50;99.90;;;;;;5081842;28;20040;-75
2022/07/14 08:10:15;;;;;;;5.93;0.90;;;18.40;99.90;;;;;;5069097;28;20047;-74
2022/07/14 08:12:41;;;;;;;5.03;1.30;;;18.40;99.90;;;;;;5083352;28;20044;-74
2022/07/14 08:15:07;;;;;;;5.13;0.90;;;18.30;99.90;;;;;;5080872;28;20043;-75
2022/07/14 08:17:34;;;;;;;5.90;1.23;;;18.30;99.90;;;;;;5067254;28;20050;-74
2022/07/14 08:19:59;;;;;;;5.40;1.10;;;18.40;99.90;;;;;;5068875;28;20117;-74
2022/07/14 08:22:27;;;;;;;5.50;0.90;;;18.60;99.90;;;;;;5083371;28;20040;-72
2022/07/14 08:24:53;;;;;;;7.17;1.20;;;18.70;99.90;;;;;;5046434;28;20061;-74
2022/07/14 08:27:21;;;;;;;4.30;1.10;;;18.90;99.90;;;;;;5083318;28;20071;-74
2022/07/14 08:29:47;;;;;;;7.90;1.27;;;18.90;99.90;;;;;;5060158;28;20048;-74
2022/07/14 08:32:13;;;;;;;6.50;1.20;;;18.90;99.90;;;;;;5083852;28;20044;-73
2022/07/14 08:34:38;;;;;;;9.53;1.70;;;18.90;99.90;;;;;;5066855;28;20548;-73
2022/07/14 08:37:05;;;;;;;6.37;1.10;;;18.90;99.90;;;;;;5083563;28;20036;-74
2022/07/14 08:39:31;;;;;;;7.07;1.50;;;19.00;99.90;;;;;;5065151;28;20048;-74
2022/07/14 08:42:00;;;;;;;5.63;1.10;;;19.00;99.90;;;;;;5081408;28;20101;-73
2022/07/14 08:44:27;;;;;;;8.77;1.33;;;19.10;99.90;;;;;;5067621;28;20040;-73
2022/07/14 08:46:54;;;;;;;4.47;1.30;;;19.20;99.90;;;;;;5066496;28;20059;-74
2022/07/14 08:49:20;;;;;;;2.67;0.90;;;19.30;99.90;;;;;;5079101;28;20058;-74
2022/07/14 08:51:49;;;;;;;7.53;1.10;;;19.40;99.90;;;;;;5076579;28;20487;-74
2022/07/14 08:54:15;;;;;;;6.47;1.00;;;19.60;99.90;;;;;;5084376;28;20040;-74
2022/07/14 08:56:41;;;;;;;7.40;1.30;;;19.70;99.90;;;;;;5063115;28;20476;-75
2022/07/14 08:59:08;;;;;;;2.40;0.73;;;19.80;99.90;;;;;;5082860;28;20075;-74
2022/07/14 09:01:36;;;;;;;7.93;1.00;;;19.90;99.90;;;;;;5063948;28;20047;-74
2022/07/14 09:04:02;;;;;;;8.10;1.13;;;20.00;99.90;;;;;;5057231;28;20039;-76
2022/07/14 09:06:51;;;;;;;4.03;0.90;;;20.00;99.90;;;;;;5083115;28;20039;-77
2022/07/14 09:09:18;;;;;;;3.77;0.70;;;20.10;99.90;;;;;;5082362;28;20048;-76
2022/07/14 09:11:57;;;;;;;3.47;0.80;;;20.10;99.90;;;;;;5080862;28;20047;-74
2022/07/14 09:14:25;;;;;;;5.30;0.90;;;20.00;99.90;;;;;;5064233;28;20063;-75
2022/07/14 09:16:53;;;;;;;3.60;0.80;;;20.10;99.90;;;;;;5085651;28;20089;-75
2022/07/14 09:19:20;;;;;;;4.23;1.10;;;20.30;99.90;;;;;;5086720;28;20074;-77
2022/07/14 09:21:54;;;;;;;3.73;1.00;;;20.50;99.90;;;;;;5063078;28;20119;-76
2022/07/14 09:24:21;;;;;;;4.72;0.82;;;20.70;99.90;;;;;;5083235;28;20040;-75
2022/07/14 09:26:48;;;;;;;2.70;0.67;;;20.80;99.90;;;;;;5086317;28;20055;-75
2022/07/14 09:29:19;;;;;;;3.10;0.80;;;20.90;99.90;;;;;;5082214;28;20540;-75
2022/07/14 09:31:45;;;;;;;3.20;0.83;;;21.20;99.90;;;;;;5085994;28;20447;-78
2022/07/14 09:34:23;;;;;;;4.67;1.10;;;21.40;99.90;;;;;;5080784;28;20039;-76
2022/07/14 09:36:49;;;;;;;3.83;0.97;;;21.40;99.90;;;;;;5084758;28;20160;-77
2022/07/14 09:39:15;;;;;;;5.07;1.00;;;21.50;99.90;;;;;;5063865;28;20672;-77
2022/07/14 09:41:49;;;;;;;2.97;0.80;;;21.50;99.90;;;;;;5085445;28;20040;-76
2022/07/14 09:44:19;;;;;;;2.93;1.00;;;21.50;99.60;;;;;;5062251;28;20101;-75
2022/07/14 09:46:47;;;;;;;4.00;0.97;;;21.40;99.20;;;;;;5048675;28;20085;-77
2022/07/14 09:49:15;;;;;;;2.97;0.97;;;21.30;99.40;;;;;;5061600;28;20052;-75
2022/07/14 09:52:01;;;;;;;1.87;0.90;;;21.50;99.90;;;;;;5066374;28;20090;-76
2022/07/14 09:54:44;;;;;;;3.03;0.90;;;21.60;99.90;;;;;;5079180;28;20700;-76
2022/07/14 09:57:26;;;;;;;4.40;1.13;;;21.70;99.70;;;;;;5058685;28;20097;-76
2022/07/14 09:59:55;;;;;;;2.97;0.90;;;21.90;98.90;;;;;;5068686;28;20044;-77
2022/07/14 10:02:24;;;;;;;2.53;0.80;;;21.90;98.60;;;;;;5080759;28;20043;-75
2022/07/14 10:04:54;;;;;;;5.40;1.23;;;21.90;97.80;;;;;;5071328;28;20539;-75
2022/07/14 10:07:22;;;;;;;3.70;0.77;;;21.80;97.80;;;;;;5067366;28;20047;-77
2022/07/14 10:09:54;;;;;;;4.43;0.80;;;21.90;98.30;;;;;;5050284;28;20068;-75
2022/07/14 10:12:21;;;;;;;4.67;0.90;;;21.90;98.70;;;;;;5078754;28;20044;-76
2022/07/14 10:14:48;;;;;;;5.20;1.43;;;21.90;98.80;;;;;;5081959;28;20040;-75
2022/07/14 10:17:15;;;;;;;5.33;0.93;;;21.90;99.00;;;;;;5082578;28;20615;-75
2022/07/14 10:19:41;;;;;;;7.53;1.10;;;21.90;99.20;;;;;;5083305;28;20040;-74
2022/07/14 10:22:09;;;;;;;4.07;1.00;;;21.90;99.40;;;;;;5082192;28;20124;-76
2022/07/14 10:24:36;;;;;;;2.67;0.83;;;21.80;99.30;;;;;;5064207;28;20058;-77
2022/07/14 10:27:02;;;;;;;4.73;0.80;;;21.80;98.90;;;;;;5079089;28;20084;-75
2022/07/14 10:29:29;;;;;;;4.40;0.90;;;21.70;98.60;;;;;;5048500;28;20048;-75
2022/07/14 10:32:11;;;;;;;5.43;1.03;;;21.70;98.50;;;;;;5083896;28;20396;-76
2022/07/14 10:34:43;;;;;;;5.13;0.87;;;21.80;98.40;;;;;;5107473;27;20414;-76
2022/07/14 10:37:20;;;;;;;2.97;0.90;;;21.80;99.20;;;;;;5058069;28;20135;-78
2022/07/14 10:39:53;;;;;;;2.30;0.80;;;21.90;99.30;;;;;;5083345;28;20043;-76
2022/07/14 10:42:30;;;;;;;3.90;0.90;;;21.80;98.70;;;;;;5081335;28;20075;-77
2022/07/14 10:44:56;;;;;;;3.70;0.90;;;21.90;98.30;;;;;;5063858;28;20055;-75
2022/07/14 10:47:25;;;;;;;4.03;0.80;;;22.00;98.20;;;;;;5065440;28;20056;-75
2022/07/14 10:50:07;;;;;;;4.00;0.87;;;22.10;98.30;;;;;;5082506;28;20509;-75
2022/07/14 10:52:36;;;;;;;1.50;0.60;;;22.10;98.00;;;;;;5078357;28;20040;-76
2022/07/14 10:55:10;;;;;;;1.90;0.67;;;22.10;98.00;;;;;;5078393;28;20048;-75
2022/07/14 10:57:36;;;;;;;3.50;0.80;;;22.20;97.80;;;;;;5078385;28;20708;-75
2022/07/14 11:00:04;;;;;;;8.33;0.80;;;22.20;97.90;;;;;;5059371;28;20044;-75
2022/07/14 11:02:33;;;;;;;2.77;0.80;;;22.20;97.50;;;;;;5079412;28;20050;-77
2022/07/14 11:05:12;;;;;;;2.03;0.60;;;22.30;97.60;;;;;;5087319;28;20040;-76
2022/07/14 11:07:43;;;;;;;6.77;1.27;;;22.30;97.50;;;;;;5084817;28;20395;-77
2022/07/14 11:10:52;;;;;;;3.55;1.00;;;22.20;97.50;;;;;;5066942;28;20048;-76
2022/07/14 11:13:17;;;;;;;3.75;0.85;;;22.10;97.30;;;;;;5045575;28;20044;-77
2022/07/14 11:15:45;;;;;;;3.03;0.60;;;22.00;97.60;;;;;;5081788;28;20044;-77
2022/07/14 11:18:30;;;;;;;4.00;1.02;;;21.90;97.60;;;;;;5064286;28;20047;-76
2022/07/14 11:21:03;;;;;;;2.28;0.75;;;21.80;97.40;;;;;;5077718;28;20039;-75
2022/07/14 11:23:32;;;;;;;1.77;0.60;;;21.70;97.70;;;;;;5057110;28;20040;-76
2022/07/14 11:26:03;;;;;;;5.13;0.95;;;21.70;97.60;;;;;;5058579;28;20047;-75
2022/07/14 11:28:34;;;;;;;2.92;0.80;;;21.60;97.70;;;;;;5075766;28;20080;-76
2022/07/14 11:31:10;;;;;;;6.00;1.17;;;21.50;96.90;;;;;;5080623;28;20036;-76
2022/07/14 11:33:37;;;;;;;5.97;1.00;;;21.40;97.50;;;;;;5081986;28;20044;-76
2022/07/14 11:36:17;;;;;;;4.77;1.10;;;21.40;97.70;;;;;;5051352;28;20040;-76
2022/07/14 11:38:45;;;;;;;3.13;1.10;;;21.40;97.60;;;;;;5063558;28;20047;-76
2022/07/14 11:41:15;;;;;;;3.03;0.80;;;21.40;97.80;;;;;;5085601;28;20400;-77
2022/07/14 11:43:46;;;;;;;4.60;0.80;;;21.40;98.20;;;;;;5066228;28;20139;-77
2022/07/14 11:46:14;;;;;;;3.47;0.80;;;21.50;98.70;;;;;;5084462;28;20044;-76
2022/07/14 11:48:42;;;;;;;2.93;0.77;;;21.70;98.70;;;;;;5066949;28;20123;-75
2022/07/14 11:51:10;;;;;;;5.47;0.90;;;21.80;98.10;;;;;;5079753;28;20427;-75
2022/07/14 11:53:38;;;;;;;3.97;1.00;;;21.70;97.80;;;;;;5042585;28;20153;-76
2022/07/14 11:56:07;;;;;;;3.40;0.90;;;21.80;98.30;;;;;;5042385;28;20039;-74
2022/07/14 11:58:35;;;;;;;3.47;0.90;;;22.00;98.00;;;;;;5060322;28;20056;-75
2022/07/14 12:01:01;;;;;;;3.80;0.73;;;22.20;97.90;;;;;;5084920;28;20553;-76
2022/07/14 12:03:28;;;;;;;4.83;0.80;;;22.60;97.30;;;;;;5065366;28;20127;-76
2022/07/14 12:05:55;;;;;;;4.10;0.90;;;22.70;97.20;;;;;;5069418;28;20503;-75
2022/07/14 12:08:22;;;;;;;3.53;0.75;;;23.30;97.00;;;;;;5082805;28;20043;-75
2022/07/14 12:10:49;;;;;;;3.47;0.75;;;23.90;96.10;;;;;;5044482;28;20044;-76
2022/07/14 12:13:18;;;;;;;5.47;0.80;;;23.80;94.60;;;;;;5071599;28;20041;-76
2022/07/14 12:15:45;;;;;;;3.67;0.82;;;23.80;94.60;;;;;;5080415;28;20395;-75
2022/07/14 12:18:12;;;;;;;6.53;1.08;;;24.30;94.40;;;;;;5067281;28;20127;-75
2022/07/14 12:20:39;;;;;;;2.15;0.68;;;24.80;93.30;;;;;;5074920;28;20046;-75
2022/07/14 12:23:05;;;;;;;8.68;0.95;;;25.40;93.10;;;;;;5065685;28;20048;-77
2022/07/14 12:25:33;;;;;;;4.28;0.80;;;25.60;92.00;;;;;;5084940;28;20097;-76
2022/07/14 12:27:59;;;;;;;4.93;1.13;;;25.10;91.40;;;;;;5084017;28;20047;-76
2022/07/14 12:30:42;;;;;;;2.28;0.77;;;24.50;91.00;;;;;;5062160;28;20085;-76
2022/07/14 12:33:09;;;;;;;5.90;1.20;;;23.90;91.40;;;;;;5071815;28;20050;-76
2022/07/14 12:35:35;;;;;;;4.88;0.80;;;23.50;92.00;;;;;;5088790;28;20066;-77
2022/07/14 12:38:01;;;;;;;1.63;0.63;;;23.20;92.50;;;;;;5064837;28;20044;-77
2022/07/14 12:40:28;;;;;;;2.38;0.80;;;23.00;92.90;;;;;;5090661;28;20050;-76
2022/07/14 12:42:54;;;;;;;4.35;0.82;;;22.90;93.60;;;;;;5072064;28;20094;-75
2022/07/14 12:45:20;;;;;;;2.78;1.00;;;23.50;94.40;;;;;;5084976;28;20415;-75
2022/07/14 12:47:52;;;;;;;4.32;1.10;;;24.10;94.20;;;;;;5087143;28;20032;-75
2022/07/14 12:50:19;;;;;;;4.93;1.08;;;24.60;93.20;;;;;;5087584;28;20058;-74
2022/07/14 12:52:49;;;;;;;10.13;1.00;;;25.00;92.70;;;;;;5089833;28;20048;-77
2022/07/14 12:55:30;;;;;;;3.97;0.85;;;25.20;91.80;;;;;;5085127;28;20047;-77
2022/07/14 12:58:02;;;;;;;3.85;0.80;;;24.90;90.00;;;;;;5084137;28;20388;-75